KNUQ/NUQ METAR and TAF weather

Enter ICAO airport designator
Station Type Date Time Source
KNUQ METAR 2019/06/18 03:56 UTC NOAA

KNUQ 180356Z 33005KT 10SM CLR 19/14 A2986 RMK AO2 SLP114 T01940144


Station Type Date Time Source
KNUQ Decoded METAR 2019/06/18 03:56 UTC NOAA

MOFFETT FIELD, CA, United States (KNUQ) 37-26N 122-03W 19M
Jun 17, 2019 - 11:56 PM EDT / 2019.06.18 0356 UTC
Wind: from the NNW (330 degrees) at 6 MPH (5 KT):0
Visibility: 10 mile(s):0
Sky conditions: clear
Temperature: 66.9 F (19.4 C)
Dew Point: 57.9 F (14.4 C)
Relative Humidity: 72%
Pressure (altimeter): 29.86 in. Hg (1011 hPa)
ob: KNUQ 180356Z 33005KT 10SM CLR 19/14 A2986 RMK AO2 SLP114 T01940144
cycle: 4

Station Type Date Time Source
KNUQ TAF 2018/01/28 15:27 UTC NOAA

TAF COR KNUQ 2815/2915 14012G22KT 9999 SCT020 BKN035 BKN050 BKN120 650509 651406 540009 540909 QNH3017INS
TEMPO 2816/2822 14018G30KT 8000 -SHRA BKN015 OVC030
FM282200 14020G32KT 9999 SCT020 BKN050 BKN120 650509 651406 540009 540909 QNH3009INS
TEMPO 2909/2915 8000 -SHRA BKN015 OVC040 T08/2915Z T12/2922Z COR 1523 FS30085

Example: see airport list